createdAt,value
2023-05-21T00:00:52.895Z,14.900
2023-05-21T00:01:46.493Z,14.900
2023-05-21T00:02:37.313Z,14.900
2023-05-21T00:03:28.974Z,14.900
2023-05-21T00:05:32.936Z,14.900
2023-05-21T00:06:25.751Z,14.900
2023-05-21T00:07:56.307Z,14.900
2023-05-21T00:08:23.632Z,14.900
2023-05-21T00:09:41.394Z,14.900
2023-05-21T00:11:27.364Z,14.800
2023-05-21T00:12:36.986Z,14.800
2023-05-21T00:13:31.409Z,14.800
2023-05-21T00:14:24.426Z,14.800
2023-05-21T00:15:20.775Z,14.800
2023-05-21T00:16:34.606Z,14.800
2023-05-21T00:17:38.619Z,14.800
2023-05-21T00:18:31.479Z,14.800
2023-05-21T00:19:25.314Z,14.800
2023-05-21T00:22:21.562Z,14.800
2023-05-21T00:23:49.685Z,14.800
2023-05-21T00:24:44.841Z,14.800
2023-05-21T00:25:36.001Z,14.800
2023-05-21T00:26:27.004Z,14.800
2023-05-21T00:27:19.896Z,14.800
2023-05-21T00:28:31.721Z,14.800
2023-05-21T00:29:25.312Z,14.800
2023-05-21T00:30:54.591Z,14.800
2023-05-21T00:31:47.374Z,14.800
2023-05-21T00:32:23.872Z,14.800
2023-05-21T00:33:32.940Z,14.800
2023-05-21T00:34:24.834Z,14.800
2023-05-21T00:35:35.496Z,14.800
2023-05-21T00:36:28.711Z,14.800
2023-05-21T00:37:22.389Z,14.800
2023-05-21T00:38:28.717Z,14.800
2023-05-21T00:39:44.467Z,14.800
2023-05-21T00:40:25.686Z,14.800
2023-05-21T00:41:29.888Z,14.800
2023-05-21T00:42:21.007Z,14.800
2023-05-21T00:43:32.957Z,14.700
2023-05-21T00:44:32.109Z,14.700
2023-05-21T00:46:30.122Z,14.700
2023-05-21T00:47:40.666Z,14.700
2023-05-21T00:48:35.040Z,14.700
2023-05-21T00:49:26.823Z,14.700
2023-05-21T00:50:37.947Z,14.700
2023-05-21T00:51:22.878Z,14.700
2023-05-21T00:52:25.913Z,14.700
2023-05-21T00:53:51.873Z,14.700
2023-05-21T00:54:44.956Z,14.700
2023-05-21T00:55:24.820Z,14.700
2023-05-21T00:56:31.032Z,14.700
2023-05-21T00:57:23.895Z,14.700
2023-05-21T00:58:37.903Z,14.700
2023-05-21T00:59:27.826Z,14.700
2023-05-21T01:00:31.058Z,14.700
2023-05-21T01:08:54.311Z,14.700
2023-05-21T01:09:45.803Z,14.700
2023-05-21T01:16:52.503Z,14.700
2023-05-21T01:18:16.945Z,14.700
2023-05-21T01:18:52.987Z,14.700
2023-05-21T01:19:29.213Z,14.700
2023-05-21T01:20:22.175Z,14.700
2023-05-21T01:21:34.785Z,14.700
2023-05-21T01:22:26.301Z,14.700
2023-05-21T01:23:28.716Z,14.700
2023-05-21T01:24:42.055Z,14.700
2023-05-21T01:25:39.157Z,14.700
2023-05-21T01:26:32.913Z,14.700
2023-05-21T01:27:23.822Z,14.700
2023-05-21T01:28:20.785Z,14.700
2023-05-21T01:29:29.712Z,14.700
2023-05-21T01:30:22.622Z,14.700
2023-05-21T01:31:51.909Z,14.700
2023-05-21T01:32:46.084Z,14.700
2023-05-21T01:33:36.894Z,14.700
2023-05-21T01:34:26.221Z,14.700
2023-05-21T01:35:22.857Z,14.700
2023-05-21T01:36:34.439Z,14.700
2023-05-21T01:37:28.200Z,14.700
2023-05-21T01:38:20.244Z,14.700
2023-05-21T01:39:48.184Z,14.700
2023-05-21T01:40:31.165Z,14.700
2023-05-21T01:41:34.189Z,14.650
2023-05-21T01:42:26.743Z,14.600
2023-05-21T01:45:24.403Z,14.600
2023-05-21T01:47:46.454Z,14.600
2023-05-21T01:48:38.994Z,14.600
2023-05-21T01:49:30.909Z,14.600
2023-05-21T01:50:22.227Z,14.600
2023-05-21T01:51:27.225Z,14.600
2023-05-21T01:52:28.688Z,14.600
2023-05-21T01:53:23.837Z,14.600
2023-05-21T01:54:48.202Z,14.600
2023-05-21T01:55:41.510Z,14.600
2023-05-21T01:56:33.057Z,14.600
2023-05-21T01:57:28.469Z,14.600
2023-05-21T01:58:39.580Z,14.600
2023-05-21T01:59:32.717Z,14.500
2023-05-21T02:00:26.466Z,14.500
2023-05-21T02:01:53.033Z,14.500
2023-05-21T02:02:25.708Z,14.500
2023-05-21T02:03:59.330Z,14.500
2023-05-21T02:04:31.797Z,14.500
2023-05-21T02:05:24.355Z,14.500
2023-05-21T02:06:38.962Z,14.500
2023-05-21T02:07:29.716Z,14.500
2023-05-21T02:08:22.789Z,14.500
2023-05-21T02:09:43.280Z,14.500
2023-05-21T02:10:42.459Z,14.400
2023-05-21T02:11:35.230Z,14.400
2023-05-21T02:12:27.198Z,14.400
2023-05-21T02:13:24.042Z,14.400
2023-05-21T02:16:21.416Z,14.400
2023-05-21T02:17:47.258Z,14.400
2023-05-21T02:18:40.291Z,14.300
2023-05-21T02:19:28.018Z,14.300
2023-05-21T02:20:25.266Z,14.300
2023-05-21T02:21:38.154Z,14.300
2023-05-21T02:22:32.032Z,14.200
2023-05-21T02:23:23.747Z,14.200
2023-05-21T02:24:50.145Z,14.200
2023-05-21T02:25:31.888Z,14.200
2023-05-21T02:26:36.212Z,14.200
2023-05-21T02:27:29.866Z,14.200
2023-05-21T02:28:23.224Z,14.200
2023-05-21T02:29:35.242Z,14.200
2023-05-21T02:30:22.831Z,14.200
2023-05-21T02:31:21.203Z,14.200
2023-05-21T02:32:50.247Z,14.200
2023-05-21T02:33:40.216Z,14.200
2023-05-21T02:34:33.835Z,14.200
2023-05-21T02:35:24.552Z,14.100
2023-05-21T02:36:27.707Z,14.100
2023-05-21T02:37:32.231Z,14.100
2023-05-21T02:38:25.487Z,14.100
2023-05-21T02:39:52.166Z,14.100
2023-05-21T02:40:46.972Z,14.100
2023-05-21T02:41:21.224Z,14.000
2023-05-21T02:42:30.225Z,14.000
2023-05-21T02:43:23.154Z,14.000
2023-05-21T02:45:31.343Z,14.000
2023-05-21T02:46:22.735Z,14.000
2023-05-21T02:47:49.316Z,14.000
2023-05-21T02:48:44.169Z,14.000
2023-05-21T02:49:33.954Z,14.000
2023-05-21T02:50:26.078Z,14.000
2023-05-21T02:51:45.258Z,13.900
2023-05-21T02:52:34.859Z,13.900
2023-05-21T02:53:29.771Z,13.900
2023-05-21T02:54:19.988Z,13.900
2023-05-21T02:55:45.231Z,13.900
2023-05-21T02:56:39.154Z,13.900
2023-05-21T02:57:30.737Z,13.900
2023-05-21T02:58:26.230Z,13.900
2023-05-21T02:59:35.167Z,13.900
2023-05-21T03:00:32.652Z,13.900
2023-05-21T03:01:30.011Z,13.900
2023-05-21T03:02:50.193Z,13.800
2023-05-21T03:03:40.822Z,13.800
2023-05-21T03:04:28.220Z,13.800
2023-05-21T03:06:18.079Z,13.800
2023-05-21T03:06:46.319Z,13.800
2023-05-21T03:08:56.071Z,13.800
2023-05-21T03:09:42.770Z,13.800
2023-05-21T03:10:44.737Z,13.800
2023-05-21T03:12:06.864Z,13.800
2023-05-21T03:12:44.055Z,13.800
2023-05-21T03:13:34.379Z,13.800
2023-05-21T03:14:51.041Z,13.800
2023-05-21T03:15:38.510Z,13.800
2023-05-21T03:16:33.062Z,13.800
2023-05-21T03:18:05.975Z,13.800
2023-05-21T03:18:50.855Z,13.800
2023-05-21T03:19:39.828Z,13.800
2023-05-21T03:20:38.221Z,13.800
2023-05-21T03:21:31.930Z,13.700
2023-05-21T03:22:57.173Z,13.800
2023-05-21T03:23:37.285Z,13.800
2023-05-21T03:24:30.884Z,13.700
2023-05-21T03:25:53.841Z,13.700
2023-05-21T03:26:36.083Z,13.700
2023-05-21T03:27:45.023Z,13.700
2023-05-21T03:28:37.414Z,13.700
2023-05-21T03:29:46.336Z,13.700
2023-05-21T03:30:43.147Z,13.700
2023-05-21T03:31:27.783Z,13.700
2023-05-21T03:32:21.831Z,13.700
2023-05-21T03:33:40.427Z,13.700
2023-05-21T03:34:26.731Z,13.700
2023-05-21T03:35:28.900Z,13.700
2023-05-21T03:36:24.913Z,13.700
2023-05-21T03:37:39.465Z,13.700
2023-05-21T03:38:25.341Z,13.700
2023-05-21T03:39:38.249Z,13.700
2023-05-21T03:40:48.389Z,13.700
2023-05-21T03:41:41.865Z,13.700
2023-05-21T03:42:39.050Z,13.700
2023-05-21T03:43:31.647Z,13.700
2023-05-21T03:44:48.272Z,13.700
2023-05-21T03:45:42.125Z,13.700
2023-05-21T03:46:33.880Z,13.700
2023-05-21T03:47:25.411Z,13.700
2023-05-21T03:48:40.486Z,13.700
2023-05-21T03:50:36.700Z,13.700
2023-05-21T03:51:35.842Z,13.700
2023-05-21T03:52:46.694Z,13.700
2023-05-21T03:53:37.353Z,13.700
2023-05-21T03:54:28.633Z,13.700
2023-05-21T03:55:40.246Z,13.700
2023-05-21T03:56:48.872Z,13.700
2023-05-21T03:57:38.859Z,13.700
2023-05-21T03:58:30.899Z,13.600
2023-05-21T03:59:22.063Z,13.600
2023-05-21T04:00:26.995Z,13.600
2023-05-21T04:01:29.727Z,13.600
2023-05-21T04:02:24.482Z,13.600
2023-05-21T04:03:45.082Z,13.600
2023-05-21T04:04:39.132Z,13.600
2023-05-21T04:05:31.248Z,13.600
2023-05-21T04:06:24.917Z,13.600
2023-05-21T04:07:41.023Z,13.600
2023-05-21T04:08:33.703Z,13.600
2023-05-21T04:09:28.172Z,13.600
2023-05-21T04:10:19.808Z,13.600
2023-05-21T04:11:23.054Z,13.600
2023-05-21T04:12:35.017Z,13.600
2023-05-21T04:13:27.872Z,13.600
2023-05-21T04:14:22.261Z,13.600
2023-05-21T04:15:40.139Z,13.600
2023-05-21T04:16:31.464Z,13.600
2023-05-21T04:17:23.761Z,13.600
2023-05-21T04:18:42.053Z,13.600
2023-05-21T04:19:39.078Z,13.600
2023-05-21T04:20:33.419Z,13.600
2023-05-21T04:21:25.006Z,13.600
2023-05-21T04:22:43.809Z,13.600
2023-05-21T04:23:31.832Z,13.600
2023-05-21T04:24:27.966Z,13.600
2023-05-21T04:25:23.019Z,13.600
2023-05-21T04:27:09.108Z,13.600
2023-05-21T04:28:24.230Z,13.600
2023-05-21T04:29:22.042Z,13.600
2023-05-21T04:31:34.114Z,13.600
2023-05-21T04:32:25.571Z,13.600
2023-05-21T04:33:48.768Z,13.600
2023-05-21T04:34:30.043Z,13.600
2023-05-21T04:35:32.959Z,13.600
2023-05-21T04:36:27.951Z,13.600
2023-05-21T04:37:44.448Z,13.600
2023-05-21T04:38:36.806Z,13.600
2023-05-21T04:39:21.317Z,13.600
2023-05-21T04:40:22.609Z,13.600
2023-05-21T04:41:48.729Z,13.600
2023-05-21T04:42:38.098Z,13.500
2023-05-21T04:43:32.902Z,13.500
2023-05-21T04:44:24.026Z,13.500
2023-05-21T04:45:26.996Z,13.500
2023-05-21T04:46:34.069Z,13.500
2023-05-21T04:47:26.960Z,13.500
2023-05-21T04:48:19.721Z,13.500
2023-05-21T04:49:43.324Z,13.500
2023-05-21T04:50:33.882Z,13.500
2023-05-21T04:51:26.922Z,13.500
2023-05-21T04:52:20.922Z,13.500
2023-05-21T04:54:32.887Z,13.500
2023-05-21T04:55:23.802Z,13.500
2023-05-21T04:56:23.861Z,13.500
2023-05-21T04:57:38.797Z,13.500
2023-05-21T04:58:30.949Z,13.500
2023-05-21T04:59:25.884Z,13.500
2023-05-21T05:00:45.894Z,13.500
2023-05-21T05:01:35.164Z,13.500
2023-05-21T05:02:28.470Z,13.500
2023-05-21T05:04:30.351Z,13.500
2023-05-21T05:05:37.587Z,13.500
2023-05-21T05:06:28.179Z,13.500
2023-05-21T05:07:21.128Z,13.500
2023-05-21T05:08:34.121Z,13.500
2023-05-21T05:09:32.910Z,13.500
2023-05-21T05:10:26.840Z,13.500
2023-05-21T05:11:47.853Z,13.500
2023-05-21T05:13:25.746Z,13.550
2023-05-21T05:14:24.728Z,13.600
2023-05-21T05:15:43.378Z,13.600
2023-05-21T05:16:37.819Z,13.600
2023-05-21T05:17:30.566Z,13.600
2023-05-21T05:18:22.762Z,13.600
2023-05-21T05:19:32.106Z,13.600
2023-05-21T05:20:36.785Z,13.600
2023-05-21T05:21:31.587Z,13.600
2023-05-21T05:22:21.834Z,13.600
2023-05-21T05:23:41.783Z,13.600
2023-05-21T05:24:22.962Z,13.600
2023-05-21T05:25:27.045Z,13.600
2023-05-21T05:26:21.945Z,13.600
2023-05-21T05:27:40.085Z,13.600
2023-05-21T05:28:35.464Z,13.600
2023-05-21T05:29:25.976Z,13.600
2023-05-21T05:30:21.041Z,13.600
2023-05-21T05:31:39.667Z,13.600
2023-05-21T05:32:31.339Z,13.700
2023-05-21T05:33:25.708Z,13.700
2023-05-21T05:34:46.757Z,13.700
2023-05-21T05:35:37.317Z,13.700
2023-05-21T05:36:32.623Z,13.700
2023-05-21T05:37:26.413Z,13.700
2023-05-21T05:38:44.344Z,13.700
2023-05-21T05:39:36.730Z,13.700
2023-05-21T05:40:28.108Z,13.700
2023-05-21T05:41:23.612Z,13.700
2023-05-21T05:42:37.923Z,13.700
2023-05-21T05:43:34.173Z,13.700
2023-05-21T05:44:28.719Z,13.700
2023-05-21T05:45:21.917Z,13.700
2023-05-21T05:46:41.475Z,13.700
2023-05-21T05:47:29.744Z,13.700
2023-05-21T05:48:21.828Z,13.700
2023-05-21T05:49:45.046Z,13.700
2023-05-21T05:50:39.515Z,13.700
2023-05-21T05:51:30.769Z,13.800
2023-05-21T05:52:20.588Z,13.800
2023-05-21T05:54:39.611Z,13.800
2023-05-21T05:55:30.497Z,13.800
2023-05-21T05:56:22.849Z,13.800
2023-05-21T05:57:45.868Z,13.800
2023-05-21T05:58:27.453Z,13.800
2023-05-21T05:59:19.954Z,13.850
2023-05-21T06:00:22.194Z,13.900
2023-05-21T06:01:46.330Z,13.900
2023-05-21T06:02:29.589Z,13.900
2023-05-21T06:03:26.521Z,13.900
2023-05-21T06:04:19.905Z,13.900
2023-05-21T06:05:39.337Z,13.900
2023-05-21T06:06:24.654Z,13.900
2023-05-21T06:07:24.994Z,13.900
2023-05-21T06:08:46.773Z,14.000
2023-05-21T06:10:30.961Z,14.000
2023-05-21T06:11:25.436Z,14.000
2023-05-21T06:12:43.237Z,14.000
2023-05-21T06:13:25.671Z,14.000
2023-05-21T06:14:29.178Z,14.000
2023-05-21T06:15:21.532Z,14.000
2023-05-21T06:16:43.372Z,14.000
2023-05-21T06:18:30.386Z,14.000
2023-05-21T06:19:21.191Z,14.100
2023-05-21T06:20:20.457Z,14.100
2023-05-21T06:21:33.604Z,14.100
2023-05-21T06:22:26.275Z,14.100
2023-05-21T06:23:36.897Z,14.100
2023-05-21T06:24:40.731Z,14.100
2023-05-21T06:25:32.576Z,14.100
2023-05-21T06:26:25.349Z,14.200
2023-05-21T06:28:37.717Z,14.200
2023-05-21T06:29:31.514Z,14.200
2023-05-21T06:30:22.994Z,14.200
2023-05-21T06:31:46.463Z,14.200
2023-05-21T06:32:31.493Z,14.200
2023-05-21T06:33:29.669Z,14.200
2023-05-21T06:34:49.414Z,14.200
2023-05-21T06:36:36.052Z,14.300
2023-05-21T06:37:25.246Z,14.300
2023-05-21T06:38:20.963Z,14.300
2023-05-21T06:39:42.085Z,14.300
2023-05-21T06:40:35.068Z,14.300
2023-05-21T06:41:29.278Z,14.300
2023-05-21T06:42:20.211Z,14.400
2023-05-21T06:43:26.549Z,14.400
2023-05-21T06:44:31.276Z,14.400
2023-05-21T06:45:26.046Z,14.400
2023-05-21T06:46:44.781Z,14.400
2023-05-21T06:47:39.534Z,14.400
2023-05-21T06:48:30.628Z,14.400
2023-05-21T06:49:23.693Z,14.400
2023-05-21T06:50:44.978Z,14.400
2023-05-21T06:51:36.430Z,14.400
2023-05-21T06:52:28.366Z,14.500
2023-05-21T06:54:26.999Z,14.500
2023-05-21T06:55:35.153Z,14.500
2023-05-21T06:56:27.838Z,14.500
2023-05-21T06:57:22.232Z,14.500
2023-05-21T06:58:40.481Z,14.500
2023-05-21T06:59:20.810Z,14.500
2023-05-21T07:00:24.869Z,14.500
2023-05-21T07:01:43.170Z,14.600
2023-05-21T07:02:40.278Z,14.600
2023-05-21T07:03:34.139Z,14.600
2023-05-21T07:04:20.992Z,14.600
2023-05-21T07:05:21.514Z,14.600
2023-05-21T07:06:21.060Z,14.600
2023-05-21T07:07:31.370Z,14.700
2023-05-21T07:08:21.819Z,14.700
2023-05-21T07:09:24.649Z,14.700
2023-05-21T07:10:32.749Z,14.700
2023-05-21T07:11:25.390Z,14.700
2023-05-21T07:12:23.073Z,14.700
2023-05-21T07:13:22.527Z,14.700
2023-05-21T07:14:34.587Z,14.700
2023-05-21T07:15:27.181Z,14.800
2023-05-21T07:17:32.287Z,14.800
2023-05-21T07:18:29.283Z,14.900
2023-05-21T07:19:28.850Z,14.900
2023-05-21T07:21:31.628Z,14.900
2023-05-21T07:22:22.356Z,14.900
2023-05-21T07:23:25.073Z,14.900
2023-05-21T07:24:32.272Z,15.000
2023-05-21T07:25:30.155Z,15.000
2023-05-21T07:26:24.558Z,15.000
2023-05-21T07:27:25.630Z,15.000
2023-05-21T07:28:27.147Z,15.000
2023-05-21T07:29:26.667Z,15.000
2023-05-21T07:30:23.681Z,15.100
2023-05-21T07:31:20.195Z,15.100
2023-05-21T07:32:28.388Z,15.100
2023-05-21T07:33:20.208Z,15.100
2023-05-21T07:34:20.527Z,15.100
2023-05-21T07:35:20.818Z,15.100
2023-05-21T07:36:41.773Z,15.200
2023-05-21T07:37:23.983Z,15.200
2023-05-21T07:38:23.719Z,15.200
2023-05-21T07:39:25.694Z,15.200
2023-05-21T07:40:24.480Z,15.200
2023-05-21T07:41:20.482Z,15.200
2023-05-21T07:42:27.554Z,15.200
2023-05-21T07:43:26.290Z,15.200
2023-05-21T07:44:22.409Z,15.200
2023-05-21T07:45:30.843Z,15.300
2023-05-21T07:46:21.718Z,15.300
2023-05-21T07:47:25.080Z,15.300
2023-05-21T07:48:21.893Z,15.300
2023-05-21T07:49:30.744Z,15.400
2023-05-21T07:50:23.989Z,15.400
2023-05-21T07:52:32.697Z,15.400
2023-05-21T07:53:26.183Z,15.400
2023-05-21T07:54:24.278Z,15.400
2023-05-21T07:55:20.515Z,15.500
2023-05-21T07:56:28.876Z,15.500
2023-05-21T07:57:42.176Z,15.500
2023-05-21T07:59:33.095Z,15.500
2023-05-21T08:00:28.654Z,15.600
2023-05-21T08:01:24.763Z,15.600
2023-05-21T08:02:20.991Z,15.600
2023-05-21T08:03:31.581Z,15.600
2023-05-21T08:04:26.803Z,15.600
2023-05-21T08:05:23.959Z,15.600
2023-05-21T08:07:24.093Z,15.700
2023-05-21T08:08:27.259Z,15.700
2023-05-21T08:09:20.482Z,15.800
2023-05-21T08:10:31.549Z,15.800
2023-05-21T08:11:34.992Z,15.800
2023-05-21T08:12:22.753Z,15.800
2023-05-21T08:13:22.692Z,15.800
2023-05-21T08:14:28.537Z,15.800
2023-05-21T08:15:25.486Z,15.800
2023-05-21T08:16:27.241Z,15.850
2023-05-21T08:17:30.647Z,15.900
2023-05-21T08:18:22.102Z,15.900
2023-05-21T08:19:22.929Z,15.900
2023-05-21T08:20:25.957Z,15.900
2023-05-21T08:21:30.091Z,15.900
2023-05-21T08:22:24.832Z,16.000
2023-05-21T08:23:21.602Z,16.000
2023-05-21T08:24:21.085Z,16.000
2023-05-21T08:25:28.134Z,16.000
2023-05-21T08:26:22.637Z,16.000
2023-05-21T08:27:31.117Z,16.100
2023-05-21T08:28:22.304Z,16.100
2023-05-21T08:29:24.642Z,16.100
2023-05-21T08:30:20.671Z,16.100
2023-05-21T08:31:24.137Z,16.100
2023-05-21T08:32:26.579Z,16.100
2023-05-21T08:33:25.091Z,16.100
2023-05-21T08:34:26.310Z,16.100
2023-05-21T08:35:23.528Z,16.200
2023-05-21T08:36:19.281Z,16.200
2023-05-21T08:37:20.505Z,16.200
2023-05-21T08:38:31.947Z,16.200
2023-05-21T08:39:21.276Z,16.200
2023-05-21T08:40:22.569Z,16.300
2023-05-21T08:41:27.122Z,16.300
2023-05-21T08:42:37.073Z,16.300
2023-05-21T08:45:32.020Z,16.400
2023-05-21T08:46:26.602Z,16.400
2023-05-21T08:47:23.287Z,16.400
2023-05-21T08:48:32.726Z,16.500
2023-05-21T08:49:28.195Z,16.500
2023-05-21T08:50:24.407Z,16.500
2023-05-21T08:51:21.200Z,16.500
2023-05-21T08:53:30.319Z,16.500
2023-05-21T08:54:22.482Z,16.500
2023-05-21T08:55:33.437Z,16.600
2023-05-21T08:56:23.118Z,16.600
2023-05-21T08:57:24.302Z,16.600
2023-05-21T08:58:20.435Z,16.600
2023-05-21T08:59:30.952Z,16.600
2023-05-21T09:00:26.436Z,16.700
2023-05-21T09:01:24.764Z,16.700
2023-05-21T09:02:32.698Z,16.700
2023-05-21T09:03:22.915Z,16.800
2023-05-21T09:04:24.393Z,16.800
2023-05-21T09:05:21.982Z,16.800
2023-05-21T09:06:24.289Z,16.800
2023-05-21T09:07:27.423Z,16.800
2023-05-21T09:08:22.383Z,16.900
2023-05-21T09:09:24.380Z,16.900
2023-05-21T09:10:30.861Z,17.000
2023-05-21T09:11:24.947Z,17.000
2023-05-21T09:12:22.343Z,17.000
2023-05-21T09:13:28.347Z,17.000
2023-05-21T09:14:26.807Z,17.100
2023-05-21T09:15:22.863Z,17.100
2023-05-21T09:16:27.054Z,17.100
2023-05-21T09:17:20.431Z,17.150
2023-05-21T09:18:25.360Z,17.200
2023-05-21T09:19:21.799Z,17.200
2023-05-21T09:20:23.296Z,17.300
2023-05-21T09:22:23.536Z,17.300
2023-05-21T09:23:34.096Z,17.300
2023-05-21T09:24:24.173Z,17.400
2023-05-21T09:25:21.367Z,17.400
2023-05-21T09:26:20.699Z,17.400
2023-05-21T09:27:30.553Z,17.400
2023-05-21T09:28:27.698Z,17.400
2023-05-21T09:30:36.745Z,17.500
2023-05-21T09:31:20.235Z,17.500
2023-05-21T09:32:22.658Z,17.500
2023-05-21T09:33:20.501Z,17.500
2023-05-21T09:34:30.436Z,17.600
2023-05-21T09:35:26.637Z,17.600
2023-05-21T09:38:29.180Z,17.600
2023-05-21T09:39:28.870Z,17.600
2023-05-21T09:40:20.717Z,17.700
2023-05-21T09:41:30.401Z,17.700
2023-05-21T09:42:26.788Z,17.700
2023-05-21T09:43:22.631Z,17.700
2023-05-21T09:44:22.356Z,17.700
2023-05-21T09:45:29.013Z,17.700
2023-05-21T09:46:24.618Z,17.700
2023-05-21T09:47:22.101Z,17.800
2023-05-21T09:48:22.185Z,17.800
2023-05-21T09:49:28.426Z,17.900
2023-05-21T09:50:22.527Z,17.900
2023-05-21T09:51:26.569Z,17.900
2023-05-21T09:52:41.900Z,17.900
2023-05-21T09:53:25.124Z,17.900
2023-05-21T09:54:20.599Z,18.000
2023-05-21T09:55:30.303Z,18.000
2023-05-21T09:56:27.404Z,18.000
2023-05-21T09:57:22.558Z,18.100
2023-05-21T09:58:33.010Z,18.100
2023-05-21T09:59:24.816Z,18.100
2023-05-21T10:00:24.652Z,18.200
2023-05-21T10:01:20.590Z,18.200
2023-05-21T10:02:22.561Z,18.200
2023-05-21T10:03:27.218Z,18.300
2023-05-21T10:04:22.487Z,18.300
2023-05-21T10:05:24.290Z,18.300
2023-05-21T10:06:30.431Z,18.300
2023-05-21T10:07:21.123Z,18.300
2023-05-21T10:08:20.511Z,18.300
2023-05-21T10:09:29.274Z,18.300
2023-05-21T10:10:19.996Z,18.400
2023-05-21T10:11:22.505Z,18.400
2023-05-21T10:12:32.677Z,18.400
2023-05-21T10:13:28.723Z,18.400
2023-05-21T10:14:24.865Z,18.400
2023-05-21T10:16:21.304Z,18.500
2023-05-21T10:17:25.522Z,18.500
2023-05-21T10:18:23.166Z,18.500
2023-05-21T10:19:23.855Z,18.500
2023-05-21T10:20:28.788Z,18.600
2023-05-21T10:21:24.792Z,18.600
2023-05-21T10:22:22.200Z,18.700
2023-05-21T10:24:28.454Z,18.800
2023-05-21T10:25:23.911Z,18.850
2023-05-21T10:26:28.157Z,18.900
2023-05-21T10:27:30.520Z,19.000
2023-05-21T10:28:26.353Z,19.000
2023-05-21T10:29:20.341Z,19.100
2023-05-21T10:30:23.489Z,19.200
2023-05-21T10:31:27.059Z,19.300
2023-05-21T10:32:25.052Z,19.350
2023-05-21T10:33:23.128Z,19.500
2023-05-21T10:34:31.419Z,19.600
2023-05-21T10:35:24.764Z,19.600
2023-05-21T10:36:22.836Z,19.700
2023-05-21T10:37:24.999Z,19.700
2023-05-21T10:38:26.882Z,19.700
2023-05-21T10:39:22.806Z,19.700
2023-05-21T10:40:22.032Z,19.700
2023-05-21T10:41:28.558Z,19.700
2023-05-21T10:42:25.759Z,19.700
2023-05-21T10:43:20.725Z,19.600
2023-05-21T10:45:21.988Z,19.600
2023-05-21T10:46:22.721Z,19.600
2023-05-21T10:47:25.680Z,19.700
2023-05-21T10:48:29.159Z,19.650
2023-05-21T10:49:26.445Z,19.600
2023-05-21T10:50:20.756Z,19.600
2023-05-21T10:51:32.095Z,19.600
2023-05-21T10:53:22.623Z,19.600
2023-05-21T10:54:32.596Z,19.700
2023-05-21T10:55:22.699Z,19.700
2023-05-21T10:56:24.805Z,19.600
2023-05-21T10:59:29.099Z,19.600
2023-05-21T11:01:22.176Z,19.600
2023-05-21T11:02:29.041Z,19.600
2023-05-21T11:03:19.942Z,19.600
2023-05-21T11:04:21.348Z,19.600
2023-05-21T11:05:33.254Z,19.600
2023-05-21T11:06:26.495Z,19.600
2023-05-21T11:07:25.033Z,19.700
2023-05-21T11:08:34.660Z,19.700
2023-05-21T11:09:31.146Z,19.800
2023-05-21T11:10:25.425Z,19.900
2023-05-21T11:11:20.762Z,20.000
2023-05-21T11:12:30.782Z,20.100
2023-05-21T11:13:28.778Z,20.100
2023-05-21T11:14:22.498Z,20.100
2023-05-21T11:15:24.239Z,20.200
2023-05-21T11:16:28.965Z,20.200
2023-05-21T11:17:25.085Z,20.300
2023-05-21T11:18:25.676Z,20.300
2023-05-21T11:19:34.199Z,20.300
2023-05-21T11:20:27.583Z,20.400
2023-05-21T11:21:24.389Z,20.400
2023-05-21T11:22:30.045Z,20.400
2023-05-21T11:23:20.507Z,20.400
2023-05-21T11:24:24.397Z,20.400
2023-05-21T11:25:20.629Z,20.400
2023-05-21T11:26:31.309Z,20.400
2023-05-21T11:27:28.706Z,20.500
2023-05-21T11:28:23.128Z,20.500
2023-05-21T11:29:23.048Z,20.500
2023-05-21T11:30:26.102Z,20.600
2023-05-21T11:31:25.002Z,20.600
2023-05-21T11:32:21.643Z,20.700
2023-05-21T11:33:24.337Z,20.750
2023-05-21T11:34:27.700Z,20.800
2023-05-21T11:35:24.764Z,20.800
2023-05-21T11:36:35.960Z,20.900
2023-05-21T11:37:29.186Z,20.900
2023-05-21T11:39:20.432Z,21.000
2023-05-21T11:40:27.433Z,21.100
2023-05-21T11:41:26.694Z,21.150
2023-05-21T11:42:22.803Z,21.200
2023-05-21T11:43:33.036Z,21.200
2023-05-21T11:44:28.665Z,21.200
2023-05-21T11:45:26.289Z,21.200
2023-05-21T11:47:30.532Z,21.200
2023-05-21T11:48:26.572Z,21.350
2023-05-21T11:49:25.185Z,21.400
2023-05-21T11:50:32.458Z,21.400
2023-05-21T11:51:29.889Z,21.500
2023-05-21T11:52:24.680Z,21.500
2023-05-21T11:53:25.102Z,21.400
2023-05-21T11:55:42.521Z,21.400
2023-05-21T11:56:21.515Z,21.400
2023-05-21T11:57:20.160Z,21.400
2023-05-21T11:58:29.200Z,21.400
2023-05-21T11:59:25.945Z,21.500
2023-05-21T12:00:20.890Z,21.500
2023-05-21T12:01:21.583Z,21.400
2023-05-21T12:02:26.622Z,21.500
2023-05-21T12:03:24.909Z,21.500
2023-05-21T12:04:34.431Z,21.500
2023-05-21T12:05:29.148Z,21.500
2023-05-21T12:06:26.102Z,21.500
2023-05-21T12:08:25.448Z,21.300
2023-05-21T12:09:26.480Z,21.300
2023-05-21T12:10:22.822Z,21.300
2023-05-21T12:11:21.164Z,21.400
2023-05-21T12:12:41.731Z,21.400
2023-05-21T12:13:24.610Z,21.300
2023-05-21T12:14:23.155Z,21.300
2023-05-21T12:15:20.091Z,21.400
2023-05-21T12:16:22.349Z,21.400
2023-05-21T12:17:24.623Z,21.400
2023-05-21T12:18:24.872Z,21.400
2023-05-21T12:19:28.466Z,21.400
2023-05-21T12:20:27.368Z,21.400
2023-05-21T12:21:22.111Z,21.400
2023-05-21T12:22:34.458Z,21.500
2023-05-21T12:24:23.899Z,21.500
2023-05-21T12:25:34.993Z,21.500
2023-05-21T12:26:21.452Z,21.450
2023-05-21T12:27:25.335Z,21.400
2023-05-21T12:28:20.652Z,21.300
2023-05-21T12:29:30.826Z,21.300
2023-05-21T12:30:28.522Z,21.200
2023-05-21T12:31:24.116Z,21.200
2023-05-21T12:33:25.841Z,21.200
2023-05-21T12:34:24.416Z,21.200
2023-05-21T12:35:20.605Z,21.200
2023-05-21T12:36:30.793Z,21.200
2023-05-21T12:37:30.577Z,21.200
2023-05-21T12:38:23.547Z,21.200
2023-05-21T12:39:20.916Z,21.100
2023-05-21T12:40:29.766Z,21.100
2023-05-21T12:41:24.786Z,21.100
2023-05-21T12:42:21.001Z,21.100
2023-05-21T12:43:33.007Z,21.000
2023-05-21T12:44:27.460Z,21.000
2023-05-21T12:45:24.507Z,21.000
2023-05-21T12:46:24.823Z,21.000
2023-05-21T12:47:28.903Z,21.000
2023-05-21T12:48:28.046Z,21.000
2023-05-21T12:49:20.312Z,21.000
2023-05-21T12:50:30.652Z,21.000
2023-05-21T12:51:23.347Z,21.000
2023-05-21T12:52:23.114Z,21.000
2023-05-21T12:53:29.040Z,21.000
2023-05-21T12:54:21.905Z,21.000
2023-05-21T12:55:24.862Z,21.000
2023-05-21T12:56:26.051Z,21.000
2023-05-21T12:57:32.269Z,21.000
2023-05-21T12:58:26.834Z,21.000
2023-05-21T12:59:24.409Z,21.000
2023-05-21T13:00:38.098Z,21.000
2023-05-21T13:02:24.831Z,21.000
2023-05-21T13:03:20.764Z,21.000
2023-05-21T13:04:20.641Z,21.000
2023-05-21T13:05:29.774Z,21.000
2023-05-21T13:06:23.577Z,21.000
2023-05-21T13:07:32.621Z,21.000
2023-05-21T13:08:31.796Z,21.000
2023-05-21T13:10:21.880Z,21.000
2023-05-21T13:11:25.983Z,21.000
2023-05-21T13:12:27.306Z,21.000
2023-05-21T13:13:23.312Z,21.000
2023-05-21T13:14:35.335Z,21.000
2023-05-21T13:15:28.579Z,21.000
2023-05-21T13:16:28.998Z,20.900
2023-05-21T13:18:31.272Z,20.900
2023-05-21T13:19:23.130Z,20.900
2023-05-21T13:20:23.517Z,20.900
2023-05-21T13:21:33.122Z,20.900
2023-05-21T13:22:31.390Z,20.900
2023-05-21T13:23:24.632Z,20.900
2023-05-21T13:24:21.137Z,20.800
2023-05-21T13:25:35.138Z,20.900
2023-05-21T13:26:26.606Z,20.900
2023-05-21T13:27:22.562Z,20.900
2023-05-21T13:28:34.475Z,20.900
2023-05-21T13:29:30.320Z,20.800
2023-05-21T13:30:24.495Z,20.800
2023-05-21T13:31:21.334Z,20.800
2023-05-21T13:32:22.120Z,20.800
2023-05-21T13:33:29.791Z,20.800